createdAt,value
2023-01-29T00:01:46.153Z,17.92
2023-01-29T00:04:13.765Z,17.73
2023-01-29T00:06:41.352Z,16.40
2023-01-29T00:09:11.404Z,16.73
2023-01-29T00:11:38.972Z,16.98
2023-01-29T00:14:06.572Z,17.20
2023-01-29T00:16:36.714Z,16.00
2023-01-29T00:19:04.515Z,15.75
2023-01-29T00:21:32.357Z,16.77
2023-01-29T00:24:02.655Z,17.58
2023-01-29T00:26:30.421Z,18.63
2023-01-29T00:28:58.145Z,18.55
2023-01-29T00:31:28.716Z,19.73
2023-01-29T00:33:56.592Z,18.50
2023-01-29T00:36:24.156Z,18.35
2023-01-29T00:38:55.409Z,17.02
2023-01-29T00:41:23.001Z,17.70
2023-01-29T00:43:50.660Z,17.05
2023-01-29T00:46:20.949Z,16.88
2023-01-29T00:48:48.807Z,16.48
2023-01-29T00:51:16.358Z,15.88
2023-01-29T00:53:47.118Z,17.63
2023-01-29T00:56:14.893Z,20.63
2023-01-29T00:58:42.458Z,24.25
2023-01-29T01:01:12.547Z,18.88
2023-01-29T01:03:40.160Z,17.23
2023-01-29T01:06:07.753Z,15.32
2023-01-29T01:08:35.800Z,16.02
2023-01-29T01:11:06.275Z,15.27
2023-01-29T01:13:33.926Z,15.82
2023-01-29T01:16:03.935Z,14.73
2023-01-29T01:18:32.480Z,15.20
2023-01-29T01:21:01.053Z,14.15
2023-01-29T01:23:28.839Z,14.55
2023-01-29T01:25:56.407Z,14.20
2023-01-29T01:28:23.964Z,16.02
2023-01-29T01:30:54.144Z,14.95
2023-01-29T01:33:21.769Z,15.35
2023-01-29T01:35:49.441Z,15.68
2023-01-29T01:38:19.469Z,15.50
2023-01-29T01:40:47.278Z,15.82
2023-01-29T01:43:14.870Z,15.77
2023-01-29T01:45:44.946Z,15.20
2023-01-29T01:48:12.504Z,14.48
2023-01-29T01:50:43.130Z,15.68
2023-01-29T01:53:13.248Z,15.48
2023-01-29T01:55:43.759Z,15.02
2023-01-29T01:58:11.392Z,14.93
2023-01-29T02:00:42.546Z,13.93
2023-01-29T02:03:10.289Z,14.80
2023-01-29T02:05:37.961Z,14.43
2023-01-29T02:08:05.753Z,13.93
2023-01-29T02:10:33.253Z,12.73
2023-01-29T02:13:00.841Z,13.15
2023-01-29T02:15:30.658Z,13.32
2023-01-29T02:17:58.335Z,12.82
2023-01-29T02:20:26.151Z,12.68
2023-01-29T02:22:56.796Z,12.82
2023-01-29T02:25:24.521Z,12.68
2023-01-29T02:27:52.281Z,12.93
2023-01-29T02:30:22.190Z,11.95
2023-01-29T02:32:49.845Z,11.80
2023-01-29T02:35:17.507Z,12.20
2023-01-29T02:37:45.095Z,12.05
2023-01-29T02:40:12.675Z,12.68
2023-01-29T02:42:40.319Z,12.80
2023-01-29T02:45:18.512Z,12.50
2023-01-29T02:47:47.921Z,12.10
2023-01-29T02:50:24.035Z,11.63
2023-01-29T02:52:52.558Z,11.65
2023-01-29T02:55:21.421Z,11.90
2023-01-29T02:57:51.925Z,11.63
2023-01-29T03:02:52.370Z,12.30
2023-01-29T03:05:20.083Z,11.52
2023-01-29T03:07:47.977Z,12.35
2023-01-29T03:10:16.795Z,12.30
2023-01-29T03:12:45.040Z,11.35
2023-01-29T03:15:13.937Z,11.02
2023-01-29T03:17:42.661Z,11.30
2023-01-29T03:20:12.696Z,11.05
2023-01-29T03:22:40.631Z,11.45
2023-01-29T03:25:08.204Z,13.07
2023-01-29T03:27:38.416Z,11.98
2023-01-29T03:30:06.178Z,11.27
2023-01-29T03:32:34.857Z,10.98
2023-01-29T03:35:04.720Z,10.98
2023-01-29T03:37:32.576Z,10.98
2023-01-29T03:40:00.633Z,9.95
2023-01-29T03:42:28.891Z,10.70
2023-01-29T03:44:56.822Z,10.68
2023-01-29T03:47:24.528Z,11.45
2023-01-29T03:49:52.430Z,10.75
2023-01-29T03:52:20.204Z,10.75
2023-01-29T03:54:47.959Z,10.70
2023-01-29T03:57:17.752Z,10.50
2023-01-29T03:59:45.743Z,10.85
2023-01-29T04:02:13.515Z,11.07
2023-01-29T04:04:41.585Z,11.38
2023-01-29T04:07:09.543Z,10.57
2023-01-29T04:09:37.448Z,10.23
2023-01-29T04:12:11.964Z,10.07
2023-01-29T04:14:40.914Z,10.43
2023-01-29T04:17:08.539Z,11.02
2023-01-29T04:19:38.379Z,10.60
2023-01-29T04:22:06.094Z,11.02
2023-01-29T04:24:34.305Z,9.88
2023-01-29T04:27:01.979Z,10.38
2023-01-29T04:29:30.278Z,10.00
2023-01-29T04:31:58.001Z,9.68
2023-01-29T04:34:32.442Z,10.75
2023-01-29T04:39:30.174Z,9.45
2023-01-29T04:41:58.070Z,9.70
2023-01-29T04:44:28.060Z,10.32
2023-01-29T04:46:55.676Z,10.30
2023-01-29T04:49:23.299Z,10.85
2023-01-29T04:51:53.543Z,10.48
2023-01-29T04:54:21.088Z,10.50
2023-01-29T04:56:57.305Z,10.25
2023-01-29T04:59:24.909Z,10.43
2023-01-29T05:01:52.596Z,10.30
2023-01-29T05:04:22.665Z,10.68
2023-01-29T05:06:50.769Z,9.75
2023-01-29T05:09:18.505Z,9.80
2023-01-29T05:11:47.453Z,9.70
2023-01-29T05:14:14.994Z,9.60
2023-01-29T05:16:42.628Z,10.32
2023-01-29T05:19:17.316Z,10.18
2023-01-29T05:21:45.026Z,10.27
2023-01-29T05:24:12.874Z,10.30
2023-01-29T05:26:42.783Z,10.07
2023-01-29T05:29:10.356Z,10.80
2023-01-29T05:31:38.134Z,9.93
2023-01-29T05:34:08.079Z,9.93
2023-01-29T05:36:38.364Z,9.73
2023-01-29T05:39:05.896Z,9.60
2023-01-29T05:41:35.817Z,9.05
2023-01-29T05:44:04.093Z,9.43
2023-01-29T05:46:31.906Z,9.77
2023-01-29T05:49:07.108Z,9.18
2023-01-29T05:51:35.001Z,9.48
2023-01-29T05:54:03.005Z,9.98
2023-01-29T05:56:32.933Z,9.55
2023-01-29T05:59:05.375Z,9.65
2023-01-29T06:01:33.359Z,12.98
2023-01-29T06:04:03.431Z,10.07
2023-01-29T06:06:31.555Z,10.95
2023-01-29T06:08:59.307Z,11.75
2023-01-29T06:11:35.245Z,10.35
2023-01-29T06:14:02.919Z,10.07
2023-01-29T06:16:31.197Z,10.15
2023-01-29T06:18:59.104Z,9.80
2023-01-29T06:21:26.842Z,10.45
2023-01-29T06:23:54.407Z,10.60
2023-01-29T06:26:24.500Z,10.05
2023-01-29T06:28:52.220Z,10.18
2023-01-29T06:31:36.685Z,10.38
2023-01-29T06:34:08.280Z,10.00
2023-01-29T06:36:37.415Z,9.63
2023-01-29T06:39:07.092Z,12.95
2023-01-29T06:41:35.865Z,11.43
2023-01-29T06:44:04.045Z,11.25
2023-01-29T06:46:32.506Z,9.95
2023-01-29T06:49:02.432Z,9.30
2023-01-29T06:51:30.142Z,9.32
2023-01-29T06:53:57.806Z,8.52
2023-01-29T06:56:27.811Z,8.98
2023-01-29T06:58:55.363Z,8.32
2023-01-29T07:01:35.826Z,8.93
2023-01-29T07:04:06.292Z,9.48
2023-01-29T07:06:34.733Z,9.10
2023-01-29T07:09:02.330Z,9.10
2023-01-29T07:11:32.541Z,8.23
2023-01-29T07:14:00.475Z,8.25
2023-01-29T07:16:28.150Z,9.55
2023-01-29T07:18:57.886Z,9.35
2023-01-29T07:21:25.661Z,9.30
2023-01-29T07:23:53.241Z,8.98
2023-01-29T07:26:22.989Z,9.10
2023-01-29T07:28:51.033Z,8.88
2023-01-29T07:31:19.034Z,10.07
2023-01-29T07:33:48.828Z,9.13
2023-01-29T07:36:16.645Z,8.98
2023-01-29T07:38:44.215Z,9.40
2023-01-29T07:41:11.936Z,9.95
2023-01-29T07:43:40.935Z,9.43
2023-01-29T07:46:08.791Z,9.15
2023-01-29T07:48:38.844Z,8.75
2023-01-29T07:51:06.594Z,9.60
2023-01-29T07:53:34.171Z,9.60
2023-01-29T07:56:04.392Z,8.55
2023-01-29T07:58:32.316Z,9.55
2023-01-29T08:00:59.883Z,9.90
2023-01-29T08:03:31.025Z,9.48
2023-01-29T08:05:58.862Z,9.93
2023-01-29T08:08:26.553Z,10.02
2023-01-29T08:10:57.766Z,10.20
2023-01-29T08:13:25.309Z,9.65
2023-01-29T08:15:53.066Z,10.68
2023-01-29T08:18:26.772Z,9.68
2023-01-29T08:20:56.863Z,9.60
2023-01-29T08:23:24.407Z,8.82
2023-01-29T08:25:53.122Z,9.38
2023-01-29T08:28:23.270Z,9.32
2023-01-29T08:30:50.976Z,8.57
2023-01-29T08:33:23.788Z,9.48
2023-01-29T08:35:56.725Z,9.38
2023-01-29T08:38:24.230Z,9.02
2023-01-29T08:40:52.112Z,9.77
2023-01-29T08:43:19.898Z,8.73
2023-01-29T08:45:47.456Z,9.43
2023-01-29T08:48:15.231Z,9.05
2023-01-29T08:50:46.364Z,9.52
2023-01-29T08:53:13.971Z,9.32
2023-01-29T08:55:41.474Z,8.38
2023-01-29T08:58:11.682Z,8.98
2023-01-29T09:00:39.317Z,13.60
2023-01-29T09:03:08.255Z,27.42
2023-01-29T09:05:40.033Z,14.02
2023-01-29T09:08:07.580Z,9.75
2023-01-29T09:10:35.159Z,9.13
2023-01-29T09:13:05.004Z,9.02
2023-01-29T09:15:32.571Z,8.40
2023-01-29T09:18:00.131Z,9.20
2023-01-29T09:20:30.380Z,8.88
2023-01-29T09:22:58.089Z,8.02
2023-01-29T09:25:25.695Z,9.25
2023-01-29T09:27:56.008Z,8.70
2023-01-29T09:30:24.254Z,9.02
2023-01-29T09:32:53.878Z,9.18
2023-01-29T09:35:24.579Z,9.60
2023-01-29T09:37:52.420Z,8.32
2023-01-29T09:40:20.048Z,9.18
2023-01-29T09:42:48.506Z,10.45
2023-01-29T09:45:16.395Z,11.57
2023-01-29T09:47:45.025Z,9.27
2023-01-29T09:50:15.326Z,9.05
2023-01-29T09:52:42.881Z,10.00
2023-01-29T09:55:10.537Z,8.75
2023-01-29T09:57:45.883Z,9.88
2023-01-29T10:00:14.442Z,9.20
2023-01-29T10:02:42.171Z,9.25
2023-01-29T10:05:09.737Z,10.48
2023-01-29T10:07:38.264Z,10.32
2023-01-29T10:10:06.073Z,8.93
2023-01-29T10:12:33.769Z,10.82
2023-01-29T10:15:04.522Z,9.43
2023-01-29T10:17:32.661Z,9.68
2023-01-29T10:20:00.188Z,9.45
2023-01-29T10:22:38.264Z,9.95
2023-01-29T10:25:12.124Z,10.25
2023-01-29T10:27:39.692Z,9.73
2023-01-29T10:30:07.400Z,9.30
2023-01-29T10:32:38.191Z,9.07
2023-01-29T10:35:05.827Z,8.93
2023-01-29T10:37:33.724Z,8.75
2023-01-29T10:40:07.618Z,9.20
2023-01-29T10:42:44.183Z,9.68
2023-01-29T10:45:11.803Z,9.23
2023-01-29T10:47:39.672Z,8.93
2023-01-29T10:50:07.837Z,9.75
2023-01-29T10:52:35.388Z,8.88
2023-01-29T10:55:02.964Z,10.57
2023-01-29T10:57:32.004Z,10.15
2023-01-29T10:59:59.515Z,9.60
2023-01-29T11:02:27.074Z,11.60
2023-01-29T11:04:57.753Z,13.00
2023-01-29T11:07:25.749Z,11.73
2023-01-29T11:09:54.042Z,11.85
2023-01-29T11:12:28.246Z,13.10
2023-01-29T11:14:56.541Z,12.75
2023-01-29T11:17:24.713Z,12.00
2023-01-29T11:20:01.909Z,12.82
2023-01-29T11:22:32.489Z,13.13
2023-01-29T11:25:00.201Z,12.70
2023-01-29T11:27:28.003Z,13.38
2023-01-29T11:29:58.367Z,12.80
2023-01-29T11:32:26.584Z,12.98
2023-01-29T11:34:54.335Z,13.50
2023-01-29T11:37:25.839Z,15.05
2023-01-29T11:40:07.152Z,15.23
2023-01-29T11:42:35.121Z,15.60
2023-01-29T11:45:03.444Z,16.90
2023-01-29T11:47:36.173Z,17.90
2023-01-29T11:50:04.512Z,18.88
2023-01-29T11:52:33.883Z,18.63
2023-01-29T11:55:06.104Z,19.60
2023-01-29T11:57:34.467Z,18.83
2023-01-29T12:00:02.593Z,18.15
2023-01-29T12:02:35.149Z,18.02
2023-01-29T12:05:03.869Z,17.92
2023-01-29T12:07:31.917Z,17.17
2023-01-29T12:10:07.668Z,16.30
2023-01-29T12:12:36.494Z,14.65
2023-01-29T12:15:04.194Z,15.07
2023-01-29T12:17:35.802Z,15.90
2023-01-29T12:20:03.677Z,14.82
2023-01-29T12:22:31.947Z,15.75
2023-01-29T12:25:02.720Z,15.93
2023-01-29T12:27:30.469Z,15.45
2023-01-29T12:29:57.971Z,16.73
2023-01-29T12:32:33.249Z,18.27
2023-01-29T12:35:03.607Z,17.88
2023-01-29T12:37:35.576Z,17.45
2023-01-29T12:40:03.601Z,18.70
2023-01-29T12:42:33.875Z,16.23
2023-01-29T12:45:01.512Z,16.67
2023-01-29T12:47:33.966Z,17.45
2023-01-29T12:50:02.776Z,18.48
2023-01-29T12:52:31.409Z,18.10
2023-01-29T12:54:59.053Z,19.50
2023-01-29T12:57:27.267Z,19.40
2023-01-29T12:59:54.899Z,20.00
2023-01-29T13:02:22.842Z,18.15
2023-01-29T13:04:52.841Z,19.05
2023-01-29T13:07:20.461Z,19.67
2023-01-29T13:09:48.706Z,19.48
2023-01-29T13:12:18.634Z,19.58
2023-01-29T13:14:46.704Z,17.95
2023-01-29T13:17:14.581Z,19.70
2023-01-29T13:19:44.415Z,19.63
2023-01-29T13:22:12.092Z,18.83
2023-01-29T13:24:39.758Z,19.23
2023-01-29T13:27:07.626Z,18.00
2023-01-29T13:29:35.261Z,18.02
2023-01-29T13:32:04.365Z,18.17
2023-01-29T13:34:34.570Z,18.23
2023-01-29T13:37:02.769Z,18.85
2023-01-29T13:39:30.750Z,18.67
2023-01-29T13:42:00.682Z,17.23
2023-01-29T13:44:28.271Z,19.13
2023-01-29T13:46:56.246Z,21.35
2023-01-29T13:49:27.029Z,20.95
2023-01-29T13:51:54.649Z,21.60
2023-01-29T13:54:22.381Z,22.33
2023-01-29T13:56:51.461Z,21.15
2023-01-29T13:59:19.070Z,21.90
2023-01-29T14:01:46.721Z,21.48
2023-01-29T14:04:14.507Z,21.83
2023-01-29T14:06:42.265Z,20.83
2023-01-29T14:09:10.213Z,20.67
2023-01-29T14:11:38.155Z,22.27
2023-01-29T14:14:05.681Z,20.23
2023-01-29T14:16:33.670Z,21.80
2023-01-29T14:19:03.564Z,21.63
2023-01-29T14:21:31.359Z,22.42
2023-01-29T14:23:59.412Z,23.80
2023-01-29T14:26:29.254Z,23.52
2023-01-29T14:28:57.017Z,23.80
2023-01-29T14:31:24.916Z,23.40
2023-01-29T14:33:54.880Z,21.00
2023-01-29T14:36:22.548Z,21.55
2023-01-29T14:38:52.539Z,20.55
2023-01-29T14:41:23.690Z,19.85
2023-01-29T14:43:52.183Z,18.73
2023-01-29T14:46:19.763Z,16.80
2023-01-29T14:48:47.923Z,15.65
2023-01-29T14:51:15.858Z,16.92
2023-01-29T14:53:43.510Z,16.35
2023-01-29T14:56:13.404Z,17.42
2023-01-29T14:58:41.504Z,15.32
2023-01-29T15:01:09.146Z,16.38
2023-01-29T15:03:37.973Z,16.85
2023-01-29T15:06:05.710Z,16.80
2023-01-29T15:08:33.229Z,17.25
2023-01-29T15:11:03.122Z,16.85
2023-01-29T15:13:30.979Z,16.85
2023-01-29T15:15:58.516Z,17.55
2023-01-29T15:18:28.430Z,16.60
2023-01-29T15:20:56.154Z,16.17
2023-01-29T15:23:23.724Z,16.60
2023-01-29T15:25:53.632Z,17.40
2023-01-29T15:28:21.447Z,16.63
2023-01-29T15:30:49.061Z,17.60
2023-01-29T15:33:16.713Z,16.52
2023-01-29T15:35:44.417Z,15.65
2023-01-29T15:38:12.024Z,16.88
2023-01-29T15:40:41.941Z,16.20
2023-01-29T15:43:09.969Z,16.67
2023-01-29T15:45:37.589Z,15.45
2023-01-29T15:48:07.470Z,15.45
2023-01-29T15:50:35.446Z,14.63
2023-01-29T15:53:02.988Z,14.02
2023-01-29T15:55:32.866Z,14.25
2023-01-29T15:58:00.634Z,15.27
2023-01-29T16:00:28.283Z,14.63
2023-01-29T16:02:56.014Z,14.07
2023-01-29T16:05:23.746Z,14.95
2023-01-29T16:07:51.226Z,14.27
2023-01-29T16:10:21.205Z,15.02
2023-01-29T16:12:49.056Z,13.77
2023-01-29T16:15:16.847Z,14.40
2023-01-29T16:17:47.249Z,13.30
2023-01-29T16:20:14.883Z,12.75
2023-01-29T16:22:42.531Z,14.10
2023-01-29T16:25:12.246Z,13.65
2023-01-29T16:27:39.959Z,14.20
2023-01-29T16:30:07.558Z,13.60
2023-01-29T16:32:37.409Z,13.43
2023-01-29T16:35:05.211Z,14.68
2023-01-29T16:37:33.487Z,13.55
2023-01-29T16:40:03.404Z,14.40
2023-01-29T16:42:31.253Z,13.30
2023-01-29T16:44:58.928Z,14.23
2023-01-29T16:47:28.743Z,14.00
2023-01-29T16:49:56.534Z,13.80
2023-01-29T16:52:24.103Z,13.55
2023-01-29T16:54:52.454Z,14.38
2023-01-29T16:57:20.028Z,15.63
2023-01-29T16:59:47.543Z,15.23
2023-01-29T17:02:17.385Z,15.13
2023-01-29T17:04:44.995Z,15.25
2023-01-29T17:07:12.653Z,14.73
2023-01-29T17:09:40.423Z,13.82
2023-01-29T17:12:08.374Z,14.95
2023-01-29T17:14:36.005Z,14.93
2023-01-29T17:17:05.490Z,15.93
2023-01-29T17:19:33.991Z,14.60
2023-01-29T17:22:01.962Z,16.35
2023-01-29T17:24:31.979Z,16.17
2023-01-29T17:26:59.795Z,16.50
2023-01-29T17:29:27.362Z,16.60
2023-01-29T17:31:57.142Z,17.77
2023-01-29T17:34:24.834Z,17.15
2023-01-29T17:36:52.537Z,17.30
2023-01-29T17:39:22.436Z,17.63
2023-01-29T17:41:50.245Z,17.33
2023-01-29T17:44:17.819Z,17.02
2023-01-29T17:46:45.621Z,17.83
2023-01-29T17:49:13.884Z,17.38
2023-01-29T17:51:41.515Z,18.00
2023-01-29T17:54:11.326Z,19.02
2023-01-29T17:56:39.121Z,18.52
2023-01-29T17:59:06.753Z,17.80
2023-01-29T18:01:36.566Z,18.77
2023-01-29T18:04:05.340Z,17.70
2023-01-29T18:06:34.288Z,18.05
2023-01-29T18:09:04.453Z,18.85
2023-01-29T18:11:35.008Z,17.55
2023-01-29T18:14:13.813Z,18.08
2023-01-29T18:16:46.609Z,18.33
2023-01-29T18:19:17.806Z,18.08
2023-01-29T18:21:45.801Z,17.92
2023-01-29T18:24:16.254Z,19.02
2023-01-29T18:26:44.557Z,18.45
2023-01-29T18:29:13.041Z,18.90
2023-01-29T18:31:45.628Z,18.42
2023-01-29T18:34:14.117Z,19.05
2023-01-29T18:36:42.526Z,18.45
2023-01-29T18:39:14.272Z,20.27
2023-01-29T18:41:42.582Z,19.10
2023-01-29T18:44:11.099Z,19.95
2023-01-29T18:46:49.405Z,18.83
2023-01-29T18:49:16.999Z,19.65
2023-01-29T18:51:54.026Z,18.75
2023-01-29T18:54:22.215Z,19.70
2023-01-29T18:57:06.235Z,18.50
2023-01-29T18:59:44.760Z,19.48
2023-01-29T19:02:17.980Z,20.23
2023-01-29T19:04:46.708Z,20.15
2023-01-29T19:07:21.572Z,21.55
2023-01-29T19:09:49.479Z,22.05
2023-01-29T19:12:19.370Z,21.65
2023-01-29T19:14:49.385Z,23.65
2023-01-29T19:17:17.301Z,23.02
2023-01-29T19:19:45.291Z,23.45
2023-01-29T19:22:16.620Z,23.83
2023-01-29T19:24:44.319Z,22.50
2023-01-29T19:27:12.900Z,22.48
2023-01-29T19:29:43.577Z,23.38
2023-01-29T19:32:12.576Z,22.70
2023-01-29T19:34:48.787Z,21.17
2023-01-29T19:37:16.505Z,23.70
2023-01-29T19:39:44.800Z,22.58
2023-01-29T19:42:15.994Z,22.17
2023-01-29T19:44:43.537Z,20.58
2023-01-29T19:47:13.812Z,20.02
2023-01-29T19:49:42.924Z,20.27
2023-01-29T19:52:11.152Z,18.80
2023-01-29T19:54:40.646Z,19.52
2023-01-29T19:57:10.434Z,18.83
2023-01-29T19:59:38.052Z,19.20
2023-01-29T20:02:09.101Z,19.80
2023-01-29T20:04:39.304Z,19.65
2023-01-29T20:07:06.939Z,19.73
2023-01-29T20:09:37.129Z,18.70
2023-01-29T20:12:07.239Z,20.05
2023-01-29T20:14:34.916Z,17.73
2023-01-29T20:17:07.813Z,18.83
2023-01-29T20:19:38.335Z,18.55
2023-01-29T20:22:14.849Z,17.17
2023-01-29T20:24:44.208Z,17.85
2023-01-29T20:27:12.007Z,16.17
2023-01-29T20:29:40.193Z,17.05
2023-01-29T20:32:13.625Z,16.08
2023-01-29T20:34:43.833Z,16.73
2023-01-29T20:37:19.023Z,17.20
2023-01-29T20:39:47.371Z,25.17
2023-01-29T20:42:16.081Z,21.05
2023-01-29T20:44:45.927Z,17.15
2023-01-29T20:47:15.292Z,17.08
2023-01-29T20:49:43.619Z,16.27
2023-01-29T20:52:14.853Z,16.85
2023-01-29T20:54:46.410Z,16.67
2023-01-29T20:57:22.097Z,15.53
2023-01-29T20:59:53.884Z,16.48
2023-01-29T21:02:22.987Z,15.80
2023-01-29T21:04:53.676Z,16.05
2023-01-29T21:07:21.304Z,16.20
2023-01-29T21:09:48.721Z,15.77
2023-01-29T21:12:37.387Z,16.08
2023-01-29T21:15:25.127Z,16.45
2023-01-29T21:18:15.455Z,16.27
2023-01-29T21:21:03.257Z,15.65
2023-01-29T21:23:53.259Z,15.35
2023-01-29T21:26:41.036Z,15.82
2023-01-29T21:29:31.141Z,15.43
2023-01-29T21:32:18.889Z,16.02
2023-01-29T21:35:09.117Z,15.10
2023-01-29T21:37:56.860Z,15.15
2023-01-29T21:40:46.972Z,15.15
2023-01-29T21:43:34.712Z,15.07
2023-01-29T21:46:22.743Z,15.55
2023-01-29T21:49:10.553Z,15.23
2023-01-29T21:52:00.741Z,14.73
2023-01-29T21:54:48.545Z,30.65
2023-01-29T21:57:38.523Z,46.33
2023-01-29T22:00:26.259Z,20.50
2023-01-29T22:03:16.577Z,17.45
2023-01-29T22:06:04.334Z,16.70
2023-01-29T22:08:54.546Z,16.13
2023-01-29T22:11:42.480Z,17.90
2023-01-29T22:14:30.537Z,17.90
2023-01-29T22:17:18.301Z,17.88
2023-01-29T22:20:08.458Z,19.10
2023-01-29T22:22:56.198Z,19.73
2023-01-29T22:25:46.359Z,17.38
2023-01-29T22:28:34.105Z,18.83
2023-01-29T22:31:24.406Z,18.45
2023-01-29T22:34:12.156Z,18.60
2023-01-29T22:36:42.058Z,19.77
2023-01-29T22:39:35.550Z,20.63
2023-01-29T22:42:06.692Z,21.45
2023-01-29T22:44:54.116Z,30.45
2023-01-29T22:47:34.212Z,32.60
2023-01-29T22:50:02.025Z,35.45
2023-01-29T22:58:31.862Z,30.17
2023-01-29T23:01:00.470Z,25.85
2023-01-29T23:03:43.071Z,26.02
2023-01-29T23:06:23.163Z,25.73
2023-01-29T23:08:59.608Z,25.50
2023-01-29T23:11:32.860Z,26.08
2023-01-29T23:14:08.573Z,24.83
2023-01-29T23:16:39.387Z,27.65
2023-01-29T23:19:17.347Z,31.17
2023-01-29T23:21:54.327Z,27.65
2023-01-29T23:24:27.184Z,26.33
2023-01-29T23:27:06.742Z,26.42
2023-01-29T23:29:37.490Z,41.25
2023-01-29T23:32:08.047Z,32.65
2023-01-29T23:34:41.767Z,28.65
2023-01-29T23:37:10.603Z,27.75
2023-01-29T23:39:40.764Z,28.42
2023-01-29T23:42:10.214Z,29.38
2023-01-29T23:44:41.336Z,30.05
2023-01-29T23:47:10.706Z,26.85
2023-01-29T23:49:41.713Z,26.35
2023-01-29T23:52:10.085Z,27.52
2023-01-29T23:54:37.911Z,29.92
2023-01-29T23:57:08.029Z,35.38
2023-01-29T23:59:35.681Z,39.50
